Nearchos — SVAI4 — position and weather

sailwx.info

Track history (hours):
 
Tides and Currents Weather Stations Pressure Air Temp Water Temp Dewpoint Dewpoint Depression Visibility Wind Speed Wind Dir Waves Ship Positions

Nearchos

Last reported at 2018-Jun-21 15:45 UTC. Time now 2018-Jun-21 21:56 UTC.
Position N 37°32' E 024°44'.

Length 87 m.

Type: Ship (hazmat cat D). MMSI: 239945400.

Date/timePositionNaut miles runAvg speedWind from/ knotsBaromVisibWave heightAir tempDewpointWater temp
2018-Jun-21 15:45N 37°32' E 024°44'414.8
2018-Jun-21 15:30N 37°32' E 024°49'1214.6
2018-Jun-21 14:40N 37°30' E 025°04'214.4
2018-Jun-21 14:30N 37°30' E 025°07'714.3
2018-Jun-21 14:00N 37°28' E 025°16'3 5.4
2018-Jun-21 13:30N 37°28' E 025°19'5 9.8
2018-Jun-21 12:57N 37°31' E 025°24'614.0
2018-Jun-21 12:30N 37°32' E 025°32'14 0.9
2018-Jun-20 20:49N 37°36' E 025°48'514.5
2018-Jun-20 20:29N 37°35' E 025°42'714.8
2018-Jun-20 20:00N 37°33' E 025°34'714.7
2018-Jun-20 19:30N 37°31' E 025°24'612.0
2018-Jun-20 19:00N 37°28' E 025°18'1 2.6
2018-Jun-20 18:31N 37°28' E 025°16'713.7
2018-Jun-20 18:00N 37°30' E 025°08'813.6
2018-Jun-20 17:26N 37°31' E 024°58'613.5
2018-Jun-20 17:00N 37°32' E 024°51'3313.1
2018-Jun-20 14:29N 37°34' E 024°10'  
2018-Jun-16 15:34N 37°21' E 024°45'114.5
2018-Jun-16 15:30N 37°20' E 024°46'714.4
2018-Jun-16 15:01N 37°16' E 024°53'713.8
2018-Jun-16 14:30N 37°11' E 024°59'713.6
2018-Jun-16 14:00N 37°07' E 025°06'2 1.3
2018-Jun-16 12:18N 37°05' E 025°07'414.8
2018-Jun-16 12:00N 37°03' E 025°02'13 1.0
2018-Jun-15 23:26N 36°59' E 025°17'613.4
2018-Jun-15 23:00N 37°05' E 025°18'3 6.0
2018-Jun-15 22:30N 37°07' E 025°21'612.5
2018-Jun-15 22:00N 37°11' E 025°14'714.0
2018-Jun-15 21:30N 37°06' E 025°07'0 0.7
2018-Jun-15 20:49N 37°06' E 025°07'413.8
2018-Jun-15 20:30N 37°08' E 025°01'714.2
2018-Jun-15 20:00N 37°10' E 024°53'46 2.4
2018-Jun-15 00:46N 37°38' E 024°06'3013.1
2018-Jun-14 22:27N 37°31' E 024°44'613.8
2018-Jun-14 22:00N 37°32' E 024°51'1014.2
2018-Jun-14 21:20N 37°30' E 025°03'514.0
2018-Jun-14 21:01N 37°29' E 025°09'713.7
2018-Jun-14 20:30N 37°28' E 025°17'1 1.4
2018-Jun-14 20:00N 37°27' E 025°18'814.5
2018-Jun-14 19:28N 37°19' E 025°18'715.2
2018-Jun-14 19:00N 37°12' E 025°19'815.0
2018-Jun-14 18:30N 37°05' E 025°18'6 0.4
2018-Jun-14 05:10N 36°59' E 025°18'214.2
2018-Jun-14 05:00N 37°02' E 025°18'714.1
2018-Jun-14 04:30N 37°09' E 025°19'714.3
2018-Jun-14 04:00N 37°16' E 025°18'714.1
2018-Jun-14 03:31N 37°23' E 025°17'510.7
2018-Jun-14 03:00N 37°28' E 025°19'612.3
2018-Jun-14 02:30N 37°29' E 025°12'714.5
2018-Jun-14 02:01N 37°31' E 025°03'913.9
2018-Jun-14 01:23N 37°32' E 024°52'514.3
2018-Jun-14 01:00N 37°31' E 024°45'81 1.8
2018-Jun-12 04:38N 38°50' E 025°11'313.5
2018-Jun-12 04:25N 38°49' E 025°08'613.6
2018-Jun-12 04:00N 38°48' E 025°01'  
Track history (hours):
 
Tides and Currents Weather Stations Pressure Air Temp Water Temp Dewpoint Dewpoint Depression Visibility Wind Speed Wind Dir Waves Ship Positions

Nearchos

Last reported at 2018-Jun-21 15:45 UTC. Time now 2018-Jun-21 21:56 UTC.
Position N 37°32' E 024°44'.

Length 87 m.

Type: Ship (hazmat cat D). MMSI: 239945400.

Date/timePositionNaut miles runAvg speedWind from/ knotsBaromVisibWave heightAir tempDewpointWater temp
2018-Jun-21 15:45N 37°32' E 024°44'414.8
2018-Jun-21 15:30N 37°32' E 024°49'1214.6
2018-Jun-21 14:40N 37°30' E 025°04'214.4
2018-Jun-21 14:30N 37°30' E 025°07'714.3
2018-Jun-21 14:00N 37°28' E 025°16'3 5.4
2018-Jun-21 13:30N 37°28' E 025°19'5 9.8
2018-Jun-21 12:57N 37°31' E 025°24'614.0
2018-Jun-21 12:30N 37°32' E 025°32'14 0.9
2018-Jun-20 20:49N 37°36' E 025°48'514.5
2018-Jun-20 20:29N 37°35' E 025°42'714.8
2018-Jun-20 20:00N 37°33' E 025°34'714.7
2018-Jun-20 19:30N 37°31' E 025°24'612.0
2018-Jun-20 19:00N 37°28' E 025°18'1 2.6
2018-Jun-20 18:31N 37°28' E 025°16'713.7
2018-Jun-20 18:00N 37°30' E 025°08'813.6
2018-Jun-20 17:26N 37°31' E 024°58'613.5
2018-Jun-20 17:00N 37°32' E 024°51'3313.1
2018-Jun-20 14:29N 37°34' E 024°10'  
2018-Jun-16 15:34N 37°21' E 024°45'114.5
2018-Jun-16 15:30N 37°20' E 024°46'714.4
2018-Jun-16 15:01N 37°16' E 024°53'713.8
2018-Jun-16 14:30N 37°11' E 024°59'713.6
2018-Jun-16 14:00N 37°07' E 025°06'2 1.3
2018-Jun-16 12:18N 37°05' E 025°07'414.8
2018-Jun-16 12:00N 37°03' E 025°02'13 1.0
2018-Jun-15 23:26N 36°59' E 025°17'613.4
2018-Jun-15 23:00N 37°05' E 025°18'3 6.0
2018-Jun-15 22:30N 37°07' E 025°21'612.5
2018-Jun-15 22:00N 37°11' E 025°14'714.0
2018-Jun-15 21:30N 37°06' E 025°07'0 0.7
2018-Jun-15 20:49N 37°06' E 025°07'413.8
2018-Jun-15 20:30N 37°08' E 025°01'714.2
2018-Jun-15 20:00N 37°10' E 024°53'46 2.4
2018-Jun-15 00:46N 37°38' E 024°06'3013.1
2018-Jun-14 22:27N 37°31' E 024°44'613.8
2018-Jun-14 22:00N 37°32' E 024°51'1014.2
2018-Jun-14 21:20N 37°30' E 025°03'514.0
2018-Jun-14 21:01N 37°29' E 025°09'713.7
2018-Jun-14 20:30N 37°28' E 025°17'1 1.4
2018-Jun-14 20:00N 37°27' E 025°18'814.5
2018-Jun-14 19:28N 37°19' E 025°18'715.2
2018-Jun-14 19:00N 37°12' E 025°19'815.0
2018-Jun-14 18:30N 37°05' E 025°18'6 0.4
2018-Jun-14 05:10N 36°59' E 025°18'214.2
2018-Jun-14 05:00N 37°02' E 025°18'714.1
2018-Jun-14 04:30N 37°09' E 025°19'714.3
2018-Jun-14 04:00N 37°16' E 025°18'714.1
2018-Jun-14 03:31N 37°23' E 025°17'510.7
2018-Jun-14 03:00N 37°28' E 025°19'612.3
2018-Jun-14 02:30N 37°29' E 025°12'714.5
2018-Jun-14 02:01N 37°31' E 025°03'913.9
2018-Jun-14 01:23N 37°32' E 024°52'514.3
2018-Jun-14 01:00N 37°31' E 024°45'81 1.8
2018-Jun-12 04:38N 38°50' E 025°11'313.5
2018-Jun-12 04:25N 38°49' E 025°08'613.6
2018-Jun-12 04:00N 38°48' E 025°01'  

Dump ship's entire track history